createdAt,value
2023-01-15T00:00:54.296Z,76.79
2023-01-15T00:01:54.245Z,76.38
2023-01-15T00:02:54.313Z,76.69
2023-01-15T00:03:54.308Z,76.59
2023-01-15T00:04:54.237Z,76.59
2023-01-15T00:05:54.222Z,75.87
2023-01-15T00:06:54.390Z,75.97
2023-01-15T00:07:54.224Z,75.83
2023-01-15T00:08:54.214Z,74.60
2023-01-15T00:09:54.146Z,74.29
2023-01-15T00:10:54.159Z,74.50
2023-01-15T00:11:54.143Z,74.50
2023-01-15T00:12:54.202Z,75.01
2023-01-15T00:13:54.480Z,74.91
2023-01-15T00:14:54.190Z,75.12
2023-01-15T00:15:54.243Z,74.80
2023-01-15T00:16:54.069Z,74.80
2023-01-15T00:17:54.147Z,75.52
2023-01-15T00:18:54.089Z,75.32
2023-01-15T00:19:54.120Z,74.08
2023-01-15T00:20:54.035Z,73.78
2023-01-15T00:21:54.250Z,73.78
2023-01-15T00:22:54.074Z,73.57
2023-01-15T00:23:53.956Z,73.47
2023-01-15T00:24:54.044Z,73.36
2023-01-15T00:25:53.982Z,72.24
2023-01-15T00:26:53.962Z,71.21
2023-01-15T00:27:53.997Z,71.51
2023-01-15T00:28:53.922Z,70.59
2023-01-15T00:29:53.911Z,69.94
2023-01-15T00:30:53.986Z,69.64
2023-01-15T00:31:53.862Z,68.51
2023-01-15T00:32:53.863Z,68.37
2023-01-15T00:33:53.890Z,68.27
2023-01-15T00:34:53.972Z,68.57
2023-01-15T00:35:53.875Z,68.48
2023-01-15T00:36:53.842Z,68.68
2023-01-15T00:37:53.790Z,68.16
2023-01-15T00:38:53.826Z,68.27
2023-01-15T00:39:53.818Z,67.76
2023-01-15T00:40:53.758Z,67.24
2023-01-15T00:41:53.726Z,68.68
2023-01-15T00:42:54.435Z,68.78
2023-01-15T00:43:53.750Z,68.27
2023-01-15T00:44:53.727Z,67.35
2023-01-15T00:45:53.707Z,67.76
2023-01-15T00:46:53.708Z,68.16
2023-01-15T00:47:53.756Z,68.78
2023-01-15T00:48:53.662Z,68.78
2023-01-15T00:49:53.638Z,69.81
2023-01-15T00:50:53.773Z,69.50
2023-01-15T00:51:53.601Z,69.70
2023-01-15T00:52:53.607Z,69.60
2023-01-15T00:53:53.599Z,70.12
2023-01-15T00:54:53.598Z,68.78
2023-01-15T00:55:53.706Z,68.99
2023-01-15T00:56:53.589Z,68.68
2023-01-15T00:57:53.531Z,68.06
2023-01-15T00:58:53.527Z,67.65
2023-01-15T00:59:53.522Z,67.24
2023-01-15T01:00:53.575Z,67.44
2023-01-15T01:01:53.630Z,68.06
2023-01-15T01:02:53.498Z,68.57
2023-01-15T01:03:53.447Z,68.37
2023-01-15T01:04:53.482Z,67.14
2023-01-15T01:05:53.425Z,66.80
2023-01-15T01:06:53.446Z,67.00
2023-01-15T01:07:53.439Z,67.21
2023-01-15T01:08:53.426Z,67.41
2023-01-15T01:09:53.371Z,67.21
2023-01-15T01:10:53.401Z,67.52
2023-01-15T01:11:53.383Z,67.11
2023-01-15T01:12:53.331Z,65.67
2023-01-15T01:13:53.366Z,65.36
2023-01-15T01:14:53.310Z,65.16
2023-01-15T01:15:53.372Z,65.33
2023-01-15T01:16:53.284Z,65.12
2023-01-15T01:17:53.291Z,64.72
2023-01-15T01:18:53.290Z,65.03
2023-01-15T01:19:53.278Z,64.20
2023-01-15T01:20:53.227Z,64.20
2023-01-15T01:21:53.265Z,64.51
2023-01-15T01:22:53.201Z,64.72
2023-01-15T01:23:53.208Z,64.61
2023-01-15T01:24:53.207Z,64.92
2023-01-15T01:25:53.186Z,65.23
2023-01-15T01:26:54.643Z,65.03
2023-01-15T01:27:53.153Z,64.72
2023-01-15T01:28:53.130Z,64.82
2023-01-15T01:29:53.163Z,65.00
2023-01-15T01:30:53.132Z,65.44
2023-01-15T01:31:53.115Z,65.64
2023-01-15T01:32:53.098Z,65.64
2023-01-15T01:34:00.902Z,65.12
2023-01-15T01:34:53.064Z,64.72
2023-01-15T01:35:53.076Z,64.72
2023-01-15T01:36:53.962Z,64.82
2023-01-15T01:37:53.031Z,64.72
2023-01-15T01:38:53.010Z,64.31
2023-01-15T01:39:53.041Z,64.59
2023-01-15T01:40:52.968Z,64.59
2023-01-15T01:41:52.990Z,65.00
2023-01-15T01:42:52.940Z,64.79
2023-01-15T01:43:52.970Z,64.89
2023-01-15T01:44:52.911Z,65.10
2023-01-15T01:45:52.994Z,65.30
2023-01-15T01:46:52.887Z,65.71
2023-01-15T01:47:52.887Z,65.54
2023-01-15T01:48:52.867Z,65.74
2023-01-15T01:49:52.893Z,66.25
2023-01-15T01:50:52.836Z,66.56
2023-01-15T01:51:52.873Z,66.77
2023-01-15T01:52:52.816Z,66.77
2023-01-15T01:53:52.841Z,65.84
2023-01-15T01:54:52.783Z,66.25
2023-01-15T01:55:52.815Z,66.67
2023-01-15T01:56:52.783Z,66.87
2023-01-15T01:57:52.782Z,67.18
2023-01-15T01:58:52.752Z,67.08
2023-01-15T01:59:52.749Z,67.38
2023-01-15T02:00:52.733Z,67.79
2023-01-15T02:01:52.855Z,68.10
2023-01-15T02:02:52.681Z,68.21
2023-01-15T02:03:53.668Z,68.62
2023-01-15T02:04:52.675Z,69.02
2023-01-15T02:05:52.668Z,69.33
2023-01-15T02:06:52.628Z,69.37
2023-01-15T02:07:52.628Z,69.16
2023-01-15T02:08:52.599Z,69.57
2023-01-15T02:09:52.641Z,69.47
2023-01-15T02:10:52.685Z,69.88
2023-01-15T02:11:53.323Z,70.18
2023-01-15T02:12:52.583Z,70.29
2023-01-15T02:13:52.634Z,70.18
2023-01-15T02:14:52.544Z,70.39
2023-01-15T02:15:52.560Z,70.90
2023-01-15T02:16:52.539Z,71.31
2023-01-15T02:17:52.625Z,71.93
2023-01-15T02:18:52.493Z,72.14
2023-01-15T02:19:53.241Z,72.96
2023-01-15T02:20:52.452Z,73.27
2023-01-15T02:21:52.451Z,73.10
2023-01-15T02:22:52.491Z,72.89
2023-01-15T02:23:53.412Z,72.99
2023-01-15T02:24:52.418Z,72.99
2023-01-15T02:25:52.482Z,73.30
2023-01-15T02:26:52.373Z,72.89
2023-01-15T02:27:52.389Z,72.78
2023-01-15T02:28:52.346Z,72.89
2023-01-15T02:29:52.357Z,73.50
2023-01-15T02:30:52.353Z,73.81
2023-01-15T02:31:52.405Z,73.81
2023-01-15T02:32:52.297Z,74.12
2023-01-15T02:33:52.352Z,73.91
2023-01-15T02:34:52.285Z,74.02
2023-01-15T02:35:52.316Z,74.74
2023-01-15T02:36:52.240Z,75.56
2023-01-15T02:37:52.982Z,75.15
2023-01-15T02:38:52.214Z,74.94
2023-01-15T02:39:52.259Z,75.76
2023-01-15T02:40:52.188Z,76.10
2023-01-15T02:41:52.576Z,76.62
2023-01-15T02:42:52.170Z,75.70
2023-01-15T02:43:52.996Z,75.59
2023-01-15T02:44:52.142Z,75.59
2023-01-15T02:45:52.216Z,75.59
2023-01-15T02:46:52.115Z,75.59
2023-01-15T02:47:52.116Z,75.80
2023-01-15T02:48:52.101Z,75.38
2023-01-15T02:49:52.097Z,74.15
2023-01-15T02:50:52.107Z,74.36
2023-01-15T02:51:52.071Z,74.46
2023-01-15T02:52:52.038Z,75.08
2023-01-15T02:53:52.085Z,74.87
2023-01-15T02:54:52.786Z,74.98
2023-01-15T02:55:52.010Z,75.29
2023-01-15T02:56:52.034Z,74.26
2023-01-15T02:57:51.993Z,74.36
2023-01-15T02:58:52.902Z,74.36
2023-01-15T02:59:52.105Z,74.26
2023-01-15T03:00:52.024Z,74.46
2023-01-15T03:01:52.152Z,74.87
2023-01-15T03:02:51.927Z,73.95
2023-01-15T03:03:51.920Z,73.74
2023-01-15T03:04:51.902Z,73.85
2023-01-15T03:05:51.963Z,74.26
2023-01-15T03:06:51.858Z,74.87
2023-01-15T03:07:51.898Z,74.87
2023-01-15T03:08:51.836Z,74.87
2023-01-15T03:09:51.880Z,74.98
2023-01-15T03:10:51.840Z,74.77
2023-01-15T03:11:51.822Z,74.77
2023-01-15T03:12:51.776Z,75.18
2023-01-15T03:13:51.793Z,75.80
2023-01-15T03:14:51.744Z,75.18
2023-01-15T03:15:52.025Z,75.38
2023-01-15T03:16:51.839Z,75.29
2023-01-15T03:17:51.756Z,75.70
2023-01-15T03:18:51.713Z,75.90
2023-01-15T03:19:52.476Z,76.51
2023-01-15T03:20:51.683Z,76.62
2023-01-15T03:21:51.705Z,76.51
2023-01-15T03:22:51.679Z,76.72
2023-01-15T03:23:51.663Z,76.93
2023-01-15T03:24:51.622Z,76.82
2023-01-15T03:25:51.641Z,77.65
2023-01-15T03:26:51.636Z,78.06
2023-01-15T03:27:51.645Z,78.16
2023-01-15T03:28:52.368Z,78.36
2023-01-15T03:29:51.591Z,78.78
2023-01-15T03:30:51.581Z,77.44
2023-01-15T03:31:51.647Z,77.65
2023-01-15T03:32:51.554Z,78.27
2023-01-15T03:33:52.295Z,78.47
2023-01-15T03:34:51.526Z,77.95
2023-01-15T03:35:52.267Z,78.50
2023-01-15T03:36:51.474Z,78.27
2023-01-15T03:37:51.525Z,77.85
2023-01-15T03:38:51.471Z,78.30
2023-01-15T03:39:51.465Z,77.68
2023-01-15T03:40:51.420Z,77.68
2023-01-15T03:41:51.446Z,77.48
2023-01-15T03:42:51.423Z,77.58
2023-01-15T03:43:51.510Z,77.27
2023-01-15T03:44:51.380Z,76.93
2023-01-15T03:45:51.427Z,76.21
2023-01-15T03:46:51.386Z,76.10
2023-01-15T03:47:51.439Z,75.59
2023-01-15T03:48:51.337Z,75.80
2023-01-15T03:49:51.338Z,76.31
2023-01-15T03:50:51.287Z,76.31
2023-01-15T03:51:51.376Z,76.62
2023-01-15T03:52:51.317Z,75.80
2023-01-15T03:53:51.399Z,75.70
2023-01-15T03:54:52.033Z,76.00
2023-01-15T03:55:51.766Z,76.10
2023-01-15T03:56:51.234Z,76.42
2023-01-15T03:57:51.259Z,76.51
2023-01-15T03:58:51.486Z,76.51
2023-01-15T03:59:51.192Z,76.51
2023-01-15T04:00:51.230Z,76.62
2023-01-15T04:01:51.302Z,76.62
2023-01-15T04:02:51.161Z,76.31
2023-01-15T04:03:51.166Z,76.31
2023-01-15T04:04:51.138Z,76.62
2023-01-15T04:05:51.171Z,76.82
2023-01-15T04:06:51.097Z,76.72
2023-01-15T04:07:51.124Z,77.03
2023-01-15T04:08:51.113Z,76.93
2023-01-15T04:09:51.067Z,76.82
2023-01-15T04:10:51.057Z,77.03
2023-01-15T04:11:51.067Z,77.03
2023-01-15T04:12:51.040Z,76.93
2023-01-15T04:13:51.024Z,76.58
2023-01-15T04:14:51.017Z,76.68
2023-01-15T04:15:51.025Z,76.68
2023-01-15T04:16:50.984Z,76.79
2023-01-15T04:17:51.002Z,76.89
2023-01-15T04:18:50.935Z,77.00
2023-01-15T04:19:50.943Z,77.00
2023-01-15T04:20:50.929Z,77.20
2023-01-15T04:21:50.928Z,78.02
2023-01-15T04:22:50.901Z,78.23
2023-01-15T04:23:50.934Z,78.53
2023-01-15T04:24:50.863Z,78.64
2023-01-15T04:25:50.899Z,79.05
2023-01-15T04:26:50.829Z,79.36
2023-01-15T04:27:50.829Z,79.46
2023-01-15T04:28:50.809Z,79.87
2023-01-15T04:29:50.808Z,79.97
2023-01-15T04:30:50.821Z,80.58
2023-01-15T04:31:50.818Z,80.79
2023-01-15T04:32:50.806Z,81.10
2023-01-15T04:33:50.797Z,81.51
2023-01-15T04:34:50.752Z,81.71
2023-01-15T04:35:50.746Z,82.03
2023-01-15T04:36:50.738Z,82.33
2023-01-15T04:37:50.725Z,82.75
2023-01-15T04:38:50.684Z,83.15
2023-01-15T04:39:50.722Z,83.46
2023-01-15T04:40:50.682Z,83.67
2023-01-15T04:41:50.698Z,83.98
2023-01-15T04:42:51.417Z,84.28
2023-01-15T04:43:50.654Z,84.59
2023-01-15T04:44:50.601Z,84.80
2023-01-15T04:45:50.678Z,84.90
2023-01-15T04:46:50.584Z,85.14
2023-01-15T04:47:50.882Z,85.21
2023-01-15T04:48:50.559Z,85.46
2023-01-15T04:49:50.568Z,85.72
2023-01-15T04:50:50.537Z,85.86
2023-01-15T04:51:50.555Z,85.82
2023-01-15T04:52:50.515Z,86.13
2023-01-15T04:53:50.536Z,86.33
2023-01-15T04:54:50.474Z,86.48
2023-01-15T04:55:50.506Z,86.17
2023-01-15T04:56:50.465Z,86.17
2023-01-15T04:57:50.532Z,86.24
2023-01-15T04:58:50.426Z,86.24
2023-01-15T04:59:50.462Z,86.44
2023-01-15T05:00:50.412Z,86.65
2023-01-15T05:02:02.493Z,86.65
2023-01-15T05:02:51.417Z,86.75
2023-01-15T05:03:50.382Z,86.65
2023-01-15T05:04:50.373Z,86.75
2023-01-15T05:05:50.361Z,86.75
2023-01-15T05:06:50.319Z,87.05
2023-01-15T05:07:50.620Z,86.95
2023-01-15T05:08:50.332Z,87.16
2023-01-15T05:09:50.314Z,86.95
2023-01-15T05:10:50.307Z,86.85
2023-01-15T05:11:50.270Z,86.95
2023-01-15T05:12:50.278Z,87.16
2023-01-15T05:13:50.256Z,86.85
2023-01-15T05:14:50.239Z,86.85
2023-01-15T05:15:50.303Z,87.16
2023-01-15T05:16:50.234Z,87.05
2023-01-15T05:17:50.221Z,87.16
2023-01-15T05:18:50.167Z,86.75
2023-01-15T05:19:50.164Z,86.95
2023-01-15T05:20:50.134Z,87.16
2023-01-15T05:21:50.162Z,87.37
2023-01-15T05:22:50.131Z,87.46
2023-01-15T05:23:50.408Z,87.57
2023-01-15T05:24:50.149Z,87.37
2023-01-15T05:25:50.085Z,87.46
2023-01-15T05:26:50.099Z,87.46
2023-01-15T05:27:50.054Z,87.61
2023-01-15T05:28:50.078Z,87.77
2023-01-15T05:29:50.067Z,87.92
2023-01-15T05:30:50.097Z,87.88
2023-01-15T05:31:50.032Z,88.02
2023-01-15T05:32:49.998Z,88.02
2023-01-15T05:33:50.028Z,88.12
2023-01-15T05:34:50.023Z,88.33
2023-01-15T05:35:49.947Z,88.43
2023-01-15T05:36:49.955Z,88.43
2023-01-15T05:37:49.924Z,88.43
2023-01-15T05:38:49.947Z,88.53
2023-01-15T05:39:49.935Z,88.53
2023-01-15T05:40:49.905Z,88.43
2023-01-15T05:41:49.872Z,88.33
2023-01-15T05:42:49.883Z,88.23
2023-01-15T05:43:49.852Z,88.23
2023-01-15T05:44:49.869Z,88.33
2023-01-15T05:45:49.822Z,88.33
2023-01-15T05:46:49.847Z,88.23
2023-01-15T05:47:49.838Z,88.02
2023-01-15T05:48:49.816Z,88.02
2023-01-15T05:49:49.784Z,87.71
2023-01-15T05:50:49.820Z,87.61
2023-01-15T05:51:49.752Z,87.40
2023-01-15T05:52:49.762Z,87.51
2023-01-15T05:53:49.771Z,87.40
2023-01-15T05:54:49.724Z,86.72
2023-01-15T05:55:49.706Z,85.90
2023-01-15T05:56:49.747Z,86.00
2023-01-15T05:57:49.701Z,86.11
2023-01-15T05:58:49.693Z,86.21
2023-01-15T05:59:49.678Z,86.32
2023-01-15T06:00:50.456Z,86.32
2023-01-15T06:01:49.703Z,86.21
2023-01-15T06:02:49.711Z,86.32
2023-01-15T06:03:49.769Z,86.32
2023-01-15T06:04:49.603Z,86.11
2023-01-15T06:05:49.562Z,86.11
2023-01-15T06:06:49.581Z,86.21
2023-01-15T06:07:49.546Z,86.11
2023-01-15T06:08:49.560Z,86.21
2023-01-15T06:09:49.602Z,86.42
2023-01-15T06:10:49.526Z,86.52
2023-01-15T06:11:49.490Z,86.42
2023-01-15T06:12:49.511Z,86.42
2023-01-15T06:13:49.470Z,86.52
2023-01-15T06:14:49.508Z,86.62
2023-01-15T06:15:49.553Z,86.42
2023-01-15T06:16:49.445Z,86.83
2023-01-15T06:17:49.420Z,86.83
2023-01-15T06:18:50.116Z,87.04
2023-01-15T06:19:49.418Z,87.13
2023-01-15T06:20:49.405Z,87.24
2023-01-15T06:21:49.418Z,87.34
2023-01-15T06:22:49.376Z,87.45
2023-01-15T06:23:49.340Z,87.55
2023-01-15T06:24:49.362Z,87.55
2023-01-15T06:25:50.077Z,87.55
2023-01-15T06:26:49.383Z,87.65
2023-01-15T06:27:49.338Z,87.85
2023-01-15T06:28:49.300Z,87.75
2023-01-15T06:29:49.264Z,87.85
2023-01-15T06:30:49.303Z,87.96
2023-01-15T06:31:49.528Z,88.17
2023-01-15T06:32:50.199Z,88.17
2023-01-15T06:33:49.246Z,88.17
2023-01-15T06:34:49.248Z,88.17
2023-01-15T06:35:49.335Z,88.06
2023-01-15T06:36:49.244Z,88.12
2023-01-15T06:37:49.156Z,88.12
2023-01-15T06:38:49.157Z,88.33
2023-01-15T06:39:49.155Z,88.47
2023-01-15T06:40:49.154Z,88.47
2023-01-15T06:41:49.134Z,88.57
2023-01-15T06:42:49.187Z,88.53
2023-01-15T06:43:49.093Z,88.27
2023-01-15T06:44:49.032Z,87.96
2023-01-15T06:45:49.074Z,87.96
2023-01-15T06:46:49.083Z,88.06
2023-01-15T06:47:49.055Z,88.17
2023-01-15T06:48:48.994Z,88.06
2023-01-15T06:49:48.995Z,88.27
2023-01-15T06:50:48.964Z,88.37
2023-01-15T06:51:48.984Z,88.57
2023-01-15T06:52:48.968Z,88.89
2023-01-15T06:53:48.900Z,89.09
2023-01-15T06:54:49.212Z,89.40
2023-01-15T06:55:48.877Z,89.50
2023-01-15T06:56:48.901Z,89.70
2023-01-15T06:57:48.859Z,89.91
2023-01-15T06:58:48.864Z,90.01
2023-01-15T06:59:48.890Z,90.12
2023-01-15T07:00:48.879Z,90.22
2023-01-15T07:01:48.848Z,90.22
2023-01-15T07:02:48.826Z,90.22
2023-01-15T07:03:48.854Z,90.22
2023-01-15T07:04:48.805Z,90.32
2023-01-15T07:05:48.744Z,90.32
2023-01-15T07:06:48.752Z,90.32
2023-01-15T07:07:48.732Z,90.32
2023-01-15T07:08:48.739Z,90.42
2023-01-15T07:09:48.756Z,90.53
2023-01-15T07:10:48.727Z,90.53
2023-01-15T07:11:48.711Z,90.53
2023-01-15T07:12:48.676Z,90.53
2023-01-15T07:13:48.641Z,90.63
2023-01-15T07:14:48.667Z,90.73
2023-01-15T07:15:48.616Z,90.94
2023-01-15T07:16:48.668Z,91.04
2023-01-15T07:17:48.626Z,91.04
2023-01-15T07:18:48.601Z,90.94
2023-01-15T07:19:48.568Z,91.04
2023-01-15T07:20:48.616Z,91.08
2023-01-15T07:21:48.594Z,91.29
2023-01-15T07:22:48.574Z,91.08
2023-01-15T07:23:48.516Z,91.19
2023-01-15T07:24:48.515Z,91.29
2023-01-15T07:25:48.496Z,91.39
2023-01-15T07:26:48.495Z,91.39
2023-01-15T07:27:48.508Z,91.39
2023-01-15T07:28:48.471Z,91.39
2023-01-15T07:29:48.441Z,91.39
2023-01-15T07:30:48.465Z,91.39
2023-01-15T07:31:48.425Z,91.29
2023-01-15T07:32:48.449Z,91.08
2023-01-15T07:33:48.392Z,90.67
2023-01-15T07:34:57.239Z,90.57
2023-01-15T07:35:50.164Z,90.57
2023-01-15T07:36:50.131Z,90.47
2023-01-15T07:37:48.344Z,90.47
2023-01-15T07:38:48.371Z,90.42
2023-01-15T07:39:48.317Z,90.53
2023-01-15T07:40:48.329Z,90.53
2023-01-15T07:41:48.297Z,90.73
2023-01-15T07:42:48.307Z,90.73
2023-01-15T07:43:48.290Z,90.73
2023-01-15T07:44:48.294Z,90.73
2023-01-15T07:45:48.324Z,90.53
2023-01-15T07:46:48.243Z,90.53
2023-01-15T07:47:48.208Z,90.53
2023-01-15T07:48:48.233Z,90.42
2023-01-15T07:49:48.196Z,90.42
2023-01-15T07:50:48.191Z,90.42
2023-01-15T07:51:48.161Z,90.53
2023-01-15T07:52:48.179Z,90.42
2023-01-15T07:53:48.137Z,90.42
2023-01-15T07:54:48.188Z,90.53
2023-01-15T07:55:48.130Z,90.32
2023-01-15T07:56:48.110Z,90.32
2023-01-15T07:57:48.095Z,90.22
2023-01-15T07:58:48.102Z,90.12
2023-01-15T07:59:48.059Z,90.01
2023-01-15T08:00:48.143Z,90.01
2023-01-15T08:01:48.198Z,89.81
2023-01-15T08:02:48.035Z,90.01
2023-01-15T08:03:48.101Z,90.01
2023-01-15T08:04:48.030Z,89.91
2023-01-15T08:05:48.028Z,89.91
2023-01-15T08:06:47.980Z,89.91
2023-01-15T08:07:47.963Z,89.91
2023-01-15T08:08:47.952Z,90.01
2023-01-15T08:09:47.922Z,90.01
2023-01-15T08:10:47.933Z,89.91
2023-01-15T08:11:47.928Z,89.97
2023-01-15T08:12:47.947Z,89.97
2023-01-15T08:13:47.888Z,89.97
2023-01-15T08:14:47.889Z,89.97
2023-01-15T08:15:47.851Z,90.08
2023-01-15T08:16:47.884Z,90.08
2023-01-15T08:17:47.868Z,90.18
2023-01-15T08:18:47.861Z,90.18
2023-01-15T08:19:47.816Z,90.28
2023-01-15T08:20:47.819Z,90.08
2023-01-15T08:21:47.777Z,89.76
2023-01-15T08:22:47.785Z,89.97
2023-01-15T08:23:47.785Z,90.08
2023-01-15T08:24:47.765Z,90.08
2023-01-15T08:25:47.716Z,90.08
2023-01-15T08:26:47.743Z,89.97
2023-01-15T08:27:47.698Z,90.08
2023-01-15T08:28:47.731Z,90.28
2023-01-15T08:29:47.730Z,90.28
2023-01-15T08:30:47.680Z,90.38
2023-01-15T08:31:47.770Z,91.31
2023-01-15T08:32:47.684Z,93.52
2023-01-15T08:33:47.619Z,90.34
2023-01-15T08:34:47.640Z,89.83
2023-01-15T08:35:47.622Z,89.83
2023-01-15T08:36:47.619Z,89.21
2023-01-15T08:37:47.590Z,89.99
2023-01-15T08:38:47.607Z,87.59
2023-01-15T08:39:47.593Z,86.36
2023-01-15T08:40:47.587Z,86.46
2023-01-15T08:41:47.541Z,86.57
2023-01-15T08:42:47.549Z,85.50
2023-01-15T08:43:47.527Z,85.60
2023-01-15T08:44:47.528Z,84.74
2023-01-15T08:45:47.529Z,83.82
2023-01-15T08:46:47.516Z,83.37
2023-01-15T08:47:47.434Z,83.37
2023-01-15T08:48:47.444Z,83.17
2023-01-15T08:49:47.455Z,83.27
2023-01-15T08:50:47.442Z,83.58
2023-01-15T08:51:47.560Z,83.78
2023-01-15T08:52:47.392Z,83.68
2023-01-15T08:53:47.356Z,83.58
2023-01-15T08:54:47.373Z,83.47
2023-01-15T08:55:47.332Z,83.58
2023-01-15T08:56:47.353Z,83.88
2023-01-15T08:57:47.384Z,84.19
2023-01-15T08:58:47.317Z,84.09
2023-01-15T08:59:47.278Z,83.51
2023-01-15T09:00:47.342Z,83.31
2023-01-15T09:01:47.459Z,83.41
2023-01-15T09:02:49.906Z,83.41
2023-01-15T09:03:47.250Z,82.69
2023-01-15T09:04:47.279Z,83.00
2023-01-15T09:05:47.219Z,83.31
2023-01-15T09:06:47.208Z,83.20
2023-01-15T09:07:47.265Z,83.61
2023-01-15T09:08:47.217Z,83.10
2023-01-15T09:09:47.159Z,83.00
2023-01-15T09:10:47.182Z,82.69
2023-01-15T09:11:47.181Z,82.53
2023-01-15T09:12:47.156Z,82.49
2023-01-15T09:13:47.141Z,82.49
2023-01-15T09:14:58.442Z,82.69
2023-01-15T09:15:48.082Z,82.69
2023-01-15T09:16:47.143Z,82.59
2023-01-15T09:17:47.113Z,81.67
2023-01-15T09:18:47.087Z,82.18
2023-01-15T09:19:47.049Z,82.59
2023-01-15T09:20:47.107Z,82.22
2023-01-15T09:21:47.072Z,82.39
2023-01-15T09:22:47.012Z,82.42
2023-01-15T09:23:46.979Z,82.83
2023-01-15T09:24:47.016Z,82.73
2023-01-15T09:25:46.988Z,83.04
2023-01-15T09:26:46.976Z,82.63
2023-01-15T09:27:46.951Z,82.63
2023-01-15T09:28:46.927Z,83.34
2023-01-15T09:29:46.907Z,83.86
2023-01-15T09:30:46.989Z,83.39
2023-01-15T09:31:46.873Z,84.20
2023-01-15T09:32:46.867Z,84.20
2023-01-15T09:33:46.831Z,84.00
2023-01-15T09:34:46.855Z,84.20
2023-01-15T09:35:46.830Z,84.41
2023-01-15T09:36:46.868Z,84.86
2023-01-15T09:37:46.769Z,85.17
2023-01-15T09:38:46.778Z,85.47
2023-01-15T09:39:46.780Z,85.78
2023-01-15T09:40:46.737Z,86.09
2023-01-15T09:41:46.778Z,86.30
2023-01-15T09:42:46.757Z,86.19
2023-01-15T09:43:50.787Z,86.24
2023-01-15T09:44:46.698Z,86.54
2023-01-15T09:45:46.758Z,86.54
2023-01-15T09:46:46.676Z,86.54
2023-01-15T09:47:46.719Z,86.75
2023-01-15T09:48:46.644Z,87.37
2023-01-15T09:49:46.664Z,87.40
2023-01-15T09:50:46.639Z,87.51
2023-01-15T09:51:46.613Z,85.66
2023-01-15T09:52:46.637Z,85.04
2023-01-15T09:53:46.853Z,84.36
2023-01-15T09:54:46.568Z,84.67
2023-01-15T09:55:46.569Z,84.26
2023-01-15T09:56:46.564Z,83.03
2023-01-15T09:57:46.559Z,83.13
2023-01-15T09:58:46.541Z,84.56
2023-01-15T09:59:46.538Z,86.42
2023-01-15T10:00:46.520Z,86.93
2023-01-15T10:01:46.495Z,87.59
2023-01-15T10:02:46.496Z,88.00
2023-01-15T10:03:46.585Z,88.00
2023-01-15T10:04:46.472Z,88.00
2023-01-15T10:05:46.504Z,87.38
2023-01-15T10:06:46.412Z,87.69
2023-01-15T10:07:46.437Z,87.69
2023-01-15T10:08:46.383Z,87.49
2023-01-15T10:09:46.385Z,87.59
2023-01-15T10:10:46.405Z,87.49
2023-01-15T10:11:46.405Z,87.49
2023-01-15T10:12:46.338Z,88.04
2023-01-15T10:13:46.715Z,88.96
2023-01-15T10:14:46.303Z,88.76
2023-01-15T10:15:46.357Z,88.14
2023-01-15T10:16:46.306Z,88.24
2023-01-15T10:17:48.412Z,87.94
2023-01-15T10:18:46.284Z,88.14
2023-01-15T10:19:46.262Z,88.24
2023-01-15T10:20:46.260Z,88.45
2023-01-15T10:21:46.278Z,87.94
2023-01-15T10:22:46.200Z,88.39
2023-01-15T10:23:46.217Z,88.29
2023-01-15T10:24:46.177Z,88.49
2023-01-15T10:25:46.210Z,88.59
2023-01-15T10:26:46.180Z,88.90
2023-01-15T10:27:46.184Z,89.42
2023-01-15T10:28:46.148Z,89.52
2023-01-15T10:29:46.136Z,89.97
2023-01-15T10:30:46.151Z,90.28
2023-01-15T10:31:46.139Z,90.49
2023-01-15T10:33:00.684Z,90.39
2023-01-15T10:33:47.096Z,90.39
2023-01-15T10:34:46.031Z,90.49
2023-01-15T10:35:46.083Z,91.00
2023-01-15T10:36:46.041Z,91.52
2023-01-15T10:37:46.076Z,91.42
2023-01-15T10:38:46.054Z,91.00
2023-01-15T10:39:46.007Z,91.00
2023-01-15T10:40:45.962Z,91.11
2023-01-15T10:41:45.990Z,90.90
2023-01-15T10:42:45.967Z,90.18
2023-01-15T10:43:45.968Z,89.97
2023-01-15T10:44:45.917Z,90.18
2023-01-15T10:45:45.970Z,88.95
2023-01-15T10:46:45.916Z,88.95
2023-01-15T10:47:45.906Z,89.77
2023-01-15T10:48:45.880Z,88.74
2023-01-15T10:49:45.913Z,86.99
2023-01-15T10:50:45.855Z,85.55
2023-01-15T10:51:45.853Z,85.34
2023-01-15T10:52:45.802Z,85.55
2023-01-15T10:53:45.862Z,85.14
2023-01-15T10:54:45.803Z,85.03
2023-01-15T10:55:45.785Z,85.34
2023-01-15T10:56:45.779Z,85.55
2023-01-15T10:57:45.786Z,84.62
2023-01-15T10:58:45.771Z,83.39
2023-01-15T10:59:45.747Z,84.11
2023-01-15T11:00:45.710Z,85.34
2023-01-15T11:01:45.792Z,86.16
2023-01-15T11:02:45.752Z,86.52
2023-01-15T11:03:45.709Z,87.03
2023-01-15T11:04:45.819Z,85.89
2023-01-15T11:05:45.720Z,85.38
2023-01-15T11:06:45.626Z,85.52
2023-01-15T11:08:06.537Z,86.15
2023-01-15T11:09:46.607Z,86.66
2023-01-15T11:10:45.605Z,86.87
2023-01-15T11:11:45.585Z,86.87
2023-01-15T11:12:45.604Z,86.97
2023-01-15T11:13:45.566Z,86.24
2023-01-15T11:14:45.523Z,86.39
2023-01-15T11:15:45.589Z,86.80
2023-01-15T11:16:45.504Z,85.67
2023-01-15T11:17:45.521Z,86.12
2023-01-15T11:18:45.505Z,86.63
2023-01-15T11:19:45.490Z,86.53
2023-01-15T11:20:45.467Z,86.57
2023-01-15T11:21:45.467Z,86.26
2023-01-15T11:22:45.456Z,86.68
2023-01-15T11:23:45.430Z,86.57
2023-01-15T11:24:45.411Z,86.20
2023-01-15T11:25:45.406Z,86.51
2023-01-15T11:26:45.376Z,86.71
2023-01-15T11:27:45.397Z,86.30
2023-01-15T11:28:45.374Z,86.82
2023-01-15T11:29:45.369Z,87.65
2023-01-15T11:30:45.410Z,86.82
2023-01-15T11:31:45.313Z,86.41
2023-01-15T11:32:45.289Z,86.51
2023-01-15T11:33:45.371Z,86.41
2023-01-15T11:34:45.271Z,86.10
2023-01-15T11:35:45.281Z,86.55
2023-01-15T11:36:45.251Z,86.76
2023-01-15T11:37:45.340Z,86.76
2023-01-15T11:38:45.250Z,86.76
2023-01-15T11:39:45.239Z,86.55
2023-01-15T11:40:45.199Z,86.65
2023-01-15T11:41:45.190Z,87.27
2023-01-15T11:42:45.208Z,87.17
2023-01-15T11:43:45.207Z,86.96
2023-01-15T11:44:45.201Z,88.10
2023-01-15T11:45:45.191Z,86.44
2023-01-15T11:46:45.162Z,86.55
2023-01-15T11:47:45.147Z,86.13
2023-01-15T11:48:45.082Z,85.97
2023-01-15T11:49:45.148Z,86.38
2023-01-15T11:50:45.085Z,85.45
2023-01-15T11:51:45.063Z,85.86
2023-01-15T11:52:45.023Z,86.79
2023-01-15T11:53:45.073Z,86.59
2023-01-15T11:54:45.060Z,85.97
2023-01-15T11:55:45.045Z,85.66
2023-01-15T11:56:44.983Z,86.49
2023-01-15T11:57:44.992Z,85.45
2023-01-15T11:58:44.992Z,85.55
2023-01-15T11:59:44.994Z,86.59
2023-01-15T12:00:44.936Z,86.07
2023-01-15T12:01:44.959Z,86.28
2023-01-15T12:02:44.902Z,86.28
2023-01-15T12:03:45.032Z,85.66
2023-01-15T12:04:45.499Z,85.76
2023-01-15T12:05:44.913Z,86.42
2023-01-15T12:06:44.848Z,85.91
2023-01-15T12:07:44.895Z,86.94
2023-01-15T12:08:44.824Z,86.63
2023-01-15T12:09:44.844Z,86.32
2023-01-15T12:10:44.808Z,86.21
2023-01-15T12:11:44.822Z,86.21
2023-01-15T12:12:44.791Z,85.91
2023-01-15T12:13:44.778Z,86.21
2023-01-15T12:14:44.747Z,86.01
2023-01-15T12:15:44.800Z,85.91
2023-01-15T12:16:44.760Z,86.21
2023-01-15T12:17:44.760Z,86.52
2023-01-15T12:18:44.690Z,86.15
2023-01-15T12:19:44.697Z,85.84
2023-01-15T12:20:44.661Z,86.36
2023-01-15T12:21:44.686Z,86.05
2023-01-15T12:22:44.669Z,86.15
2023-01-15T12:23:44.653Z,86.77
2023-01-15T12:24:44.622Z,86.88
2023-01-15T12:25:44.619Z,86.15
2023-01-15T12:26:44.585Z,86.91
2023-01-15T12:27:44.607Z,86.40
2023-01-15T12:28:44.595Z,86.71
2023-01-15T12:29:44.604Z,87.12
2023-01-15T12:30:44.608Z,87.02
2023-01-15T12:31:44.631Z,87.12
2023-01-15T12:32:44.503Z,86.81
2023-01-15T12:33:44.616Z,86.60
2023-01-15T12:34:44.493Z,86.60
2023-01-15T12:35:44.530Z,86.40
2023-01-15T12:36:44.469Z,86.60
2023-01-15T12:37:44.535Z,86.50
2023-01-15T12:38:44.474Z,86.60
2023-01-15T12:39:44.448Z,86.50
2023-01-15T12:40:44.471Z,85.99
2023-01-15T12:41:44.409Z,86.19
2023-01-15T12:42:44.412Z,85.68
2023-01-15T12:43:44.403Z,85.32
2023-01-15T12:44:44.357Z,85.22
2023-01-15T12:45:44.374Z,85.36
2023-01-15T12:46:44.433Z,85.16
2023-01-15T12:47:44.350Z,84.74
2023-01-15T12:48:44.340Z,85.26
2023-01-15T12:49:44.306Z,85.47
2023-01-15T12:50:44.285Z,85.57
2023-01-15T12:51:44.336Z,84.84
2023-01-15T12:52:44.250Z,84.33
2023-01-15T12:53:44.276Z,84.22